Time;durP1;ratioP1;P1;durP2;ratioP2;P2;SDS_P1;SDS_P2;PMS_P1;PMS_P2;Temp;Humidity;BMP_temperature;BMP_pressure;BME280_temperature;BME280_humidity;BME280_pressure;Samples;Min_cycle;Max_cycle;Signal;HPM_P1;HPM_P2
2023/03/02 00:01:34;;;;;;;3.25;0.90;;;7.00;99.90;;;;;;5090468;28;20103;-76
2023/03/02 00:04:03;;;;;;;4.03;0.95;;;7.00;99.90;;;;;;5090806;28;20028;-73
2023/03/02 00:06:30;;;;;;;2.00;0.50;;;7.00;99.90;;;;;;5089981;28;20024;-73
2023/03/02 00:08:59;;;;;;;2.95;0.70;;;7.00;99.90;;;;;;5090745;28;20457;-73
2023/03/02 00:11:26;;;;;;;5.32;0.93;;;6.90;99.90;;;;;;5089419;28;20069;-74
2023/03/02 00:13:52;;;;;;;2.25;0.70;;;7.00;99.90;;;;;;5090547;28;20081;-72
2023/03/02 00:16:18;;;;;;;2.38;1.00;;;7.00;99.90;;;;;;5090859;28;20032;-72
2023/03/02 00:18:44;;;;;;;2.67;0.68;;;7.00;99.90;;;;;;5089828;28;20024;-73
2023/03/02 00:21:10;;;;;;;2.60;0.80;;;7.00;99.90;;;;;;5089023;28;20027;-72
2023/03/02 00:23:37;;;;;;;7.78;1.75;;;7.00;99.90;;;;;;5090053;28;20109;-73
2023/03/02 00:26:04;;;;;;;2.92;0.68;;;7.00;99.90;;;;;;5090113;28;20036;-73
2023/03/02 00:28:29;;;;;;;4.00;1.25;;;7.00;99.90;;;;;;5089989;28;20033;-74
2023/03/02 00:30:55;;;;;;;3.85;0.88;;;7.00;99.90;;;;;;5090797;28;20031;-73
2023/03/02 00:33:22;;;;;;;5.35;1.10;;;7.10;99.90;;;;;;5090502;28;20103;-73
2023/03/02 00:35:47;;;;;;;3.42;0.88;;;7.10;99.90;;;;;;5089666;28;20024;-72
2023/03/02 00:38:14;;;;;;;3.78;1.23;;;7.10;99.90;;;;;;5092158;28;20073;-72
2023/03/02 00:40:47;;;;;;;6.15;1.33;;;7.10;99.90;;;;;;5094069;28;20035;-72
2023/03/02 00:43:13;;;;;;;4.75;1.25;;;7.10;99.90;;;;;;5094188;28;20032;-73
2023/03/02 00:45:39;;;;;;;6.40;1.10;;;7.10;99.90;;;;;;5092367;28;20502;-73
2023/03/02 00:48:05;;;;;;;2.65;0.75;;;7.10;99.90;;;;;;5094405;28;20053;-73
2023/03/02 00:50:31;;;;;;;5.28;1.23;;;7.10;99.90;;;;;;5093812;28;20020;-74
2023/03/02 00:52:56;;;;;;;3.08;0.80;;;7.10;99.90;;;;;;5094728;28;20020;-73
2023/03/02 00:55:22;;;;;;;6.53;1.85;;;7.20;99.90;;;;;;5094747;28;20424;-72
2023/03/02 00:57:55;;;;;;;3.65;1.27;;;7.20;99.90;;;;;;5094817;28;20853;-73
2023/03/02 01:00:23;;;;;;;3.95;0.88;;;7.20;99.90;;;;;;5095223;28;20032;-73
2023/03/02 01:02:49;;;;;;;7.38;1.55;;;7.20;99.90;;;;;;5094518;28;20032;-73
2023/03/02 01:05:15;;;;;;;5.72;0.98;;;7.20;99.90;;;;;;5095261;28;20050;-73
2023/03/02 01:07:41;;;;;;;7.53;1.48;;;7.20;99.90;;;;;;5094628;28;20039;-73
2023/03/02 01:10:08;;;;;;;6.32;1.20;;;7.20;99.90;;;;;;5092941;28;20152;-74
2023/03/02 01:12:34;;;;;;;9.30;1.77;;;7.20;99.90;;;;;;5096600;28;20028;-74
2023/03/02 01:15:00;;;;;;;5.93;1.42;;;7.20;99.90;;;;;;5096613;28;20028;-74
2023/03/02 01:17:26;;;;;;;4.07;1.45;;;7.20;99.90;;;;;;5094461;28;20035;-74
2023/03/02 01:20:11;;;;;;;2.78;1.15;;;7.20;99.90;;;;;;5093094;28;20027;-73
2023/03/02 01:22:36;;;;;;;10.23;1.30;;;7.20;99.90;;;;;;5093600;28;20052;-73
2023/03/02 01:25:03;;;;;;;5.57;1.40;;;7.20;99.90;;;;;;5093892;28;20039;-73
2023/03/02 01:27:29;;;;;;;6.28;1.98;;;7.20;99.90;;;;;;5093648;28;20040;-73
2023/03/02 01:29:54;;;;;;;9.43;1.30;;;7.20;99.90;;;;;;5093299;28;20047;-73
2023/03/02 01:32:21;;;;;;;9.13;1.92;;;7.20;99.90;;;;;;5093784;28;20053;-73
2023/03/02 01:34:46;;;;;;;7.38;1.38;;;7.20;99.90;;;;;;5092780;28;20111;-73
2023/03/02 01:37:13;;;;;;;8.70;1.30;;;7.20;99.90;;;;;;5093832;28;20383;-73
2023/03/02 01:39:39;;;;;;;6.78;1.38;;;7.20;99.90;;;;;;5092865;28;20024;-73
2023/03/02 01:42:05;;;;;;;5.43;1.13;;;7.20;99.90;;;;;;5093592;28;20030;-73
2023/03/02 01:44:47;;;;;;;6.35;1.15;;;7.20;99.90;;;;;;5093025;28;20024;-73
2023/03/02 01:47:24;;;;;;;4.93;1.05;;;7.20;99.90;;;;;;5093373;28;20044;-73
2023/03/02 01:50:00;;;;;;;8.38;1.20;;;7.20;99.90;;;;;;5090703;28;20028;-73
2023/03/02 01:52:28;;;;;;;5.95;1.52;;;7.20;99.90;;;;;;5093119;28;20370;-73
2023/03/02 01:54:58;;;;;;;7.43;1.40;;;7.20;99.90;;;;;;5092464;28;20256;-72
2023/03/02 01:57:29;;;;;;;11.10;1.42;;;7.20;99.90;;;;;;5091898;28;20035;-72
2023/03/02 02:00:09;;;;;;;9.00;1.50;;;7.20;99.90;;;;;;5092606;28;20108;-72
2023/03/02 02:02:35;;;;;;;10.75;1.42;;;7.20;99.90;;;;;;5092778;28;20463;-77
2023/03/02 02:05:02;;;;;;;5.97;1.27;;;7.20;99.90;;;;;;5092716;28;20081;-74
2023/03/02 02:07:31;;;;;;;4.75;1.65;;;7.20;99.90;;;;;;5092924;28;20119;-73
2023/03/02 02:09:59;;;;;;;6.03;1.08;;;7.20;99.90;;;;;;5092234;28;20474;-73
2023/03/02 02:12:24;;;;;;;9.77;1.10;;;7.20;99.90;;;;;;5092948;28;20068;-73
2023/03/02 02:14:52;;;;;;;6.63;1.45;;;7.20;99.90;;;;;;5090850;28;20115;-74
2023/03/02 02:17:18;;;;;;;8.52;1.90;;;7.20;99.90;;;;;;5091433;28;20378;-73
2023/03/02 02:20:06;;;;;;;9.90;1.30;;;7.20;99.90;;;;;;5092079;28;20046;-74
2023/03/02 02:22:53;;;;;;;8.35;1.42;;;7.30;99.90;;;;;;5092366;28;20044;-73
2023/03/02 02:25:35;;;;;;;10.68;1.83;;;7.30;99.90;;;;;;5092576;28;20043;-72
2023/03/02 02:28:07;;;;;;;6.60;1.10;;;7.30;99.90;;;;;;5092560;28;20032;-73
2023/03/02 02:30:35;;;;;;;7.45;1.33;;;7.30;99.90;;;;;;5091427;28;20032;-74
2023/03/02 02:33:01;;;;;;;10.93;1.88;;;7.30;99.90;;;;;;5092286;28;20501;-73
2023/03/02 02:35:30;;;;;;;7.38;1.52;;;7.20;99.90;;;;;;5092507;28;20477;-73
2023/03/02 02:38:04;;;;;;;10.52;1.70;;;7.30;99.90;;;;;;5092038;28;20055;-73
2023/03/02 02:40:54;;;;;;;8.55;1.70;;;7.20;99.90;;;;;;5092830;28;20027;-72
2023/03/02 02:43:22;;;;;;;5.35;1.17;;;7.20;99.90;;;;;;5092437;28;20471;-73
2023/03/02 02:45:54;;;;;;;6.85;1.33;;;7.20;99.90;;;;;;5092067;28;20025;-72
2023/03/02 02:48:23;;;;;;;14.43;1.63;;;7.20;99.90;;;;;;5092481;28;20032;-73
2023/03/02 02:50:58;;;;;;;8.43;1.27;;;7.30;99.90;;;;;;5091660;28;20450;-73
2023/03/02 02:53:28;;;;;;;2.95;1.13;;;7.20;99.90;;;;;;5092480;28;20039;-72
2023/03/02 02:55:56;;;;;;;8.65;1.67;;;7.30;99.90;;;;;;5091924;28;20161;-73
2023/03/02 02:58:42;;;;;;;13.35;1.15;;;7.30;99.90;;;;;;5092825;28;20046;-73
2023/03/02 03:01:12;;;;;;;4.43;1.15;;;7.30;99.90;;;;;;5091720;28;20031;-74
2023/03/02 03:03:39;;;;;;;6.10;1.23;;;7.30;99.90;;;;;;5091640;28;20058;-78
2023/03/02 03:06:08;;;;;;;4.85;1.05;;;7.30;99.90;;;;;;5091950;28;20028;-73
2023/03/02 03:08:42;;;;;;;8.10;0.90;;;7.30;99.90;;;;;;5091893;28;20025;-73
2023/03/02 03:11:09;;;;;;;4.20;1.63;;;7.20;99.90;;;;;;5092428;28;20463;-73
2023/03/02 03:13:37;;;;;;;4.40;1.35;;;7.20;99.90;;;;;;5092306;28;20032;-73
2023/03/02 03:16:04;;;;;;;2.95;0.88;;;7.20;99.90;;;;;;5091457;28;20034;-72
2023/03/02 03:18:30;;;;;;;3.40;1.23;;;7.20;99.90;;;;;;5091976;28;20050;-73
2023/03/02 03:20:57;;;;;;;3.08;0.88;;;7.20;99.90;;;;;;5091171;28;20536;-73
2023/03/02 03:23:23;;;;;;;4.97;0.80;;;7.10;99.90;;;;;;5091576;28;20048;-73
2023/03/02 03:25:49;;;;;;;4.43;0.98;;;7.10;99.90;;;;;;5091051;28;20386;-73
2023/03/02 03:28:16;;;;;;;3.40;0.80;;;7.10;99.90;;;;;;5091749;28;20118;-73
2023/03/02 03:30:42;;;;;;;4.68;0.90;;;7.10;99.90;;;;;;5091453;28;20177;-74
2023/03/02 03:33:11;;;;;;;5.68;0.85;;;7.10;99.90;;;;;;5091756;28;20028;-73
2023/03/02 03:35:37;;;;;;;3.38;0.77;;;7.10;99.90;;;;;;5091500;28;20487;-73
2023/03/02 03:38:05;;;;;;;4.28;0.50;;;7.10;99.90;;;;;;5091056;28;20070;-73
2023/03/02 03:40:33;;;;;;;3.17;0.70;;;7.00;99.90;;;;;;5090151;28;20035;-73
2023/03/02 03:43:00;;;;;;;2.78;0.60;;;6.90;99.90;;;;;;5090848;28;20382;-74
2023/03/02 03:45:26;;;;;;;2.88;0.60;;;6.90;99.90;;;;;;5091199;28;20020;-73
2023/03/02 03:47:51;;;;;;;2.40;0.45;;;6.80;99.90;;;;;;5091156;28;20039;-74
2023/03/02 03:50:17;;;;;;;3.40;0.60;;;6.70;99.90;;;;;;5090938;28;20028;-75
2023/03/02 03:52:43;;;;;;;2.80;0.70;;;6.60;99.90;;;;;;5090681;28;20474;-78
2023/03/02 03:55:09;;;;;;;1.58;0.60;;;6.60;99.90;;;;;;5091015;28;20086;-74
2023/03/02 03:57:35;;;;;;;3.65;0.60;;;6.60;99.90;;;;;;5091035;28;20103;-73
2023/03/02 04:00:04;;;;;;;2.13;0.60;;;6.50;99.90;;;;;;5090286;28;20058;-73
2023/03/02 04:02:30;;;;;;;1.17;0.30;;;6.50;99.90;;;;;;5091053;28;20068;-74
2023/03/02 04:05:05;;;;;;;3.17;0.50;;;6.50;99.90;;;;;;5090588;28;20039;-74
2023/03/02 04:07:34;;;;;;;0.73;0.40;;;6.40;99.90;;;;;;5090893;28;20101;-75
2023/03/02 04:10:03;;;;;;;0.88;0.40;;;6.40;99.90;;;;;;5090439;28;20074;-74
2023/03/02 04:12:34;;;;;;;4.75;0.60;;;6.40;99.90;;;;;;5089107;28;20024;-74
2023/03/02 04:15:00;;;;;;;1.48;0.32;;;6.40;99.90;;;;;;5090580;28;20045;-75
2023/03/02 04:17:26;;;;;;;0.98;0.30;;;6.40;99.90;;;;;;5090834;28;20477;-75
2023/03/02 04:19:52;;;;;;;2.03;0.50;;;6.40;99.90;;;;;;5089850;28;20077;-75
2023/03/02 04:22:18;;;;;;;2.08;0.30;;;6.30;99.90;;;;;;5090694;28;20391;-75
2023/03/02 04:24:45;;;;;;;3.90;0.57;;;6.30;99.90;;;;;;5090145;28;20487;-78
2023/03/02 04:27:12;;;;;;;3.00;0.50;;;6.20;99.90;;;;;;5090578;28;20032;-75
2023/03/02 04:29:39;;;;;;;1.83;0.45;;;6.20;99.90;;;;;;5091018;28;20031;-75
2023/03/02 04:32:05;;;;;;;2.95;0.60;;;6.10;99.90;;;;;;5089956;28;20020;-76
2023/03/02 04:34:32;;;;;;;1.90;0.50;;;6.10;99.90;;;;;;5089326;28;20036;-75
2023/03/02 04:36:58;;;;;;;1.95;0.50;;;6.20;99.90;;;;;;5090105;28;20107;-76
2023/03/02 04:39:24;;;;;;;2.75;0.50;;;6.10;99.90;;;;;;5091172;28;20107;-75
2023/03/02 04:41:50;;;;;;;3.10;0.70;;;6.10;99.90;;;;;;5090290;28;20393;-74
2023/03/02 04:44:16;;;;;;;2.35;0.40;;;6.10;99.90;;;;;;5090893;28;20039;-74
2023/03/02 04:46:42;;;;;;;2.63;0.70;;;6.10;99.90;;;;;;5090459;28;20107;-74
2023/03/02 04:49:08;;;;;;;2.53;0.60;;;6.10;99.90;;;;;;5090114;28;20066;-74
2023/03/02 04:51:37;;;;;;;5.38;0.70;;;6.10;99.90;;;;;;5090264;28;20059;-74
2023/03/02 04:54:13;;;;;;;4.25;1.00;;;6.10;99.90;;;;;;5089590;28;20041;-74
2023/03/02 04:56:39;;;;;;;2.28;0.70;;;6.00;99.90;;;;;;5090824;28;20046;-75
2023/03/02 04:59:05;;;;;;;2.95;0.57;;;6.10;99.90;;;;;;5089973;28;20214;-75
2023/03/02 05:01:32;;;;;;;2.55;0.73;;;6.10;99.90;;;;;;5090682;28;20031;-74
2023/03/02 05:03:57;;;;;;;1.65;0.43;;;6.10;99.90;;;;;;5090049;28;20051;-74
2023/03/02 05:06:24;;;;;;;2.35;0.70;;;6.10;99.90;;;;;;5090641;28;20067;-75
2023/03/02 05:08:50;;;;;;;1.98;0.57;;;6.10;99.90;;;;;;5090062;28;20373;-76
2023/03/02 05:11:23;;;;;;;1.67;0.60;;;6.10;99.90;;;;;;5091189;28;20024;-75
2023/03/02 05:13:52;;;;;;;;;;;6.10;99.90;;;;;;5090669;28;20031;-79
2023/03/02 05:16:19;;;;;;;5.78;0.60;;;6.10;99.90;;;;;;5090117;28;19904;-74
2023/03/02 05:18:46;;;;;;;0.90;0.40;;;6.20;99.90;;;;;;5090495;28;20051;-74
2023/03/02 05:21:13;;;;;;;3.03;0.52;;;6.20;99.90;;;;;;5090357;28;20057;-74
2023/03/02 05:23:40;;;;;;;3.40;0.85;;;6.20;99.90;;;;;;5090641;28;20140;-74
2023/03/02 05:26:06;;;;;;;2.70;0.40;;;6.30;99.90;;;;;;5093106;28;20077;-74
2023/03/02 05:28:32;;;;;;;2.25;0.63;;;6.20;99.90;;;;;;5094664;28;20024;-74
2023/03/02 05:30:58;;;;;;;1.63;0.50;;;6.20;99.90;;;;;;5094460;28;20089;-75
2023/03/02 05:33:24;;;;;;;3.65;0.80;;;6.20;99.90;;;;;;5094433;28;20035;-75
2023/03/02 05:35:50;;;;;;;5.70;0.90;;;6.10;99.90;;;;;;5093537;28;20032;-78
2023/03/02 05:38:16;;;;;;;1.58;0.60;;;6.10;99.90;;;;;;5093792;28;20027;-74
2023/03/02 05:40:42;;;;;;;2.60;0.80;;;6.10;99.90;;;;;;5093390;28;20039;-75
2023/03/02 05:43:08;;;;;;;4.38;0.75;;;6.10;99.90;;;;;;5092879;28;20024;-75
2023/03/02 05:45:37;;;;;;;1.48;0.50;;;6.10;99.90;;;;;;5093552;28;20039;-75
2023/03/02 05:48:03;;;;;;;2.78;0.68;;;6.10;99.90;;;;;;5092860;28;20107;-74
2023/03/02 05:50:29;;;;;;;1.60;0.80;;;6.10;99.90;;;;;;5093315;28;20024;-74
2023/03/02 05:52:55;;;;;;;2.88;1.02;;;6.20;99.90;;;;;;5092811;28;20455;-74
2023/03/02 05:55:21;;;;;;;3.47;0.60;;;6.20;99.90;;;;;;5093532;28;20038;-74
2023/03/02 05:57:49;;;;;;;2.25;0.60;;;6.20;99.90;;;;;;5093395;28;20385;-74
2023/03/02 06:00:16;;;;;;;3.95;0.90;;;6.20;99.90;;;;;;5092545;28;20024;-73
2023/03/02 06:02:42;;;;;;;3.22;0.82;;;6.20;99.90;;;;;;5093303;28;20059;-74
2023/03/02 06:05:11;;;;;;;6.13;1.08;;;6.20;99.90;;;;;;5091315;28;20055;-74
2023/03/02 06:07:37;;;;;;;3.95;1.23;;;6.20;99.90;;;;;;5092946;28;20039;-74
2023/03/02 06:10:07;;;;;;;1.25;0.40;;;6.20;99.90;;;;;;5092408;28;20024;-73
2023/03/02 06:12:33;;;;;;;3.88;1.35;;;6.20;99.90;;;;;;5093145;28;20024;-75
2023/03/02 06:14:59;;;;;;;7.80;1.00;;;6.20;99.90;;;;;;5092771;28;20028;-75
2023/03/02 06:17:25;;;;;;;3.83;1.00;;;6.20;99.90;;;;;;5092984;28;20032;-75
2023/03/02 06:19:51;;;;;;;7.47;1.27;;;6.20;99.90;;;;;;5093017;28;20070;-78
2023/03/02 06:22:17;;;;;;;5.85;1.20;;;6.20;99.90;;;;;;5092326;28;20056;-73
2023/03/02 06:24:43;;;;;;;8.18;1.17;;;6.20;99.90;;;;;;5092936;28;20069;-74
2023/03/02 06:27:09;;;;;;;2.65;1.52;;;6.20;99.90;;;;;;5092586;28;20115;-73
2023/03/02 06:29:34;;;;;;;6.75;1.20;;;6.20;99.90;;;;;;5092849;28;20035;-74
2023/03/02 06:32:00;;;;;;;4.32;1.60;;;6.20;99.90;;;;;;5092105;28;20020;-75
2023/03/02 06:34:28;;;;;;;6.30;1.27;;;6.20;99.90;;;;;;5092569;28;20113;-74
2023/03/02 06:36:54;;;;;;;1.73;0.75;;;6.20;99.90;;;;;;5090921;28;20379;-78
2023/03/02 06:39:20;;;;;;;5.35;1.15;;;6.20;99.90;;;;;;5092131;28;20028;-75
2023/03/02 06:41:46;;;;;;;6.05;1.45;;;6.20;99.90;;;;;;5092446;28;20032;-75
2023/03/02 06:44:13;;;;;;;5.63;1.33;;;6.20;99.90;;;;;;5091831;28;20073;-74
2023/03/02 06:46:40;;;;;;;7.88;1.25;;;6.20;99.90;;;;;;5092293;28;20110;-74
2023/03/02 06:49:07;;;;;;;9.07;1.25;;;6.20;99.90;;;;;;5091811;28;20052;-74
2023/03/02 06:51:34;;;;;;;3.17;0.82;;;6.10;99.90;;;;;;5092266;28;20027;-74
2023/03/02 06:54:00;;;;;;;5.32;1.25;;;6.00;99.90;;;;;;5091559;28;20024;-74
2023/03/02 06:56:25;;;;;;;3.33;0.90;;;6.00;99.90;;;;;;5090797;28;20484;-74
2023/03/02 06:58:51;;;;;;;3.45;0.90;;;6.00;99.90;;;;;;5092275;28;20035;-74
2023/03/02 07:01:17;;;;;;;3.90;1.27;;;6.00;99.90;;;;;;5091733;28;20031;-74
2023/03/02 07:03:44;;;;;;;4.80;0.98;;;6.00;99.90;;;;;;5090493;28;20028;-74
2023/03/02 07:06:13;;;;;;;3.20;1.10;;;6.00;99.90;;;;;;5091332;28;20142;-75
2023/03/02 07:08:39;;;;;;;2.58;0.73;;;6.00;99.90;;;;;;5091759;28;20075;-76
2023/03/02 07:11:10;;;;;;;3.55;0.93;;;6.00;99.90;;;;;;5090010;28;20020;-74
2023/03/02 07:13:37;;;;;;;7.15;1.33;;;6.00;99.90;;;;;;5090040;28;20392;-74
2023/03/02 07:16:14;;;;;;;1.63;0.85;;;6.00;99.90;;;;;;5090875;28;20075;-75
2023/03/02 07:18:40;;;;;;;4.75;1.20;;;6.10;99.90;;;;;;5091903;28;20055;-75
2023/03/02 07:21:06;;;;;;;1.35;0.95;;;6.10;99.90;;;;;;5091156;28;20052;-75
2023/03/02 07:23:32;;;;;;;6.43;1.95;;;6.10;99.90;;;;;;5091676;28;20492;-75
2023/03/02 07:25:58;;;;;;;5.15;1.73;;;6.10;99.90;;;;;;5091138;28;20153;-79
2023/03/02 07:28:24;;;;;;;7.35;1.60;;;6.20;99.90;;;;;;5090921;28;20110;-74
2023/03/02 07:30:52;;;;;;;5.05;1.25;;;6.20;99.90;;;;;;5091454;28;20056;-73
2023/03/02 07:33:18;;;;;;;4.50;1.08;;;6.20;99.90;;;;;;5090740;28;20455;-75
2023/03/02 07:35:43;;;;;;;3.80;1.00;;;6.20;99.90;;;;;;5091085;28;20405;-74
2023/03/02 07:38:09;;;;;;;4.38;1.10;;;6.20;99.90;;;;;;5090478;28;20103;-75
2023/03/02 07:40:38;;;;;;;4.47;1.23;;;6.20;99.90;;;;;;5091239;28;20024;-73
2023/03/02 07:43:04;;;;;;;2.92;0.93;;;6.20;99.90;;;;;;5090641;28;20028;-74
2023/03/02 07:45:29;;;;;;;7.45;1.40;;;6.30;99.90;;;;;;5089667;28;20034;-73
2023/03/02 07:47:55;;;;;;;2.55;1.15;;;6.30;99.90;;;;;;5089138;28;20028;-74
2023/03/02 07:50:21;;;;;;;4.63;1.60;;;6.30;99.90;;;;;;5090453;28;20024;-74
2023/03/02 07:52:47;;;;;;;3.80;1.10;;;6.30;99.90;;;;;;5090628;28;20078;-74
2023/03/02 07:55:12;;;;;;;10.52;1.60;;;6.40;99.90;;;;;;5088835;28;20059;-74
2023/03/02 07:57:38;;;;;;;3.25;1.10;;;6.40;99.90;;;;;;5090007;28;20036;-73
2023/03/02 08:00:04;;;;;;;3.42;0.98;;;6.40;99.90;;;;;;5090297;28;20028;-74
2023/03/02 08:02:32;;;;;;;4.88;1.00;;;6.40;99.90;;;;;;5091078;28;20049;-74
2023/03/02 08:04:58;;;;;;;10.02;1.52;;;6.40;99.90;;;;;;5090835;28;20381;-74
2023/03/02 08:07:24;;;;;;;7.00;1.40;;;6.50;99.90;;;;;;5090251;28;20096;-74
2023/03/02 08:09:50;;;;;;;2.63;1.08;;;6.50;99.90;;;;;;5090393;28;20072;-74
2023/03/02 08:12:15;;;;;;;3.30;1.20;;;6.60;99.90;;;;;;5089952;28;20092;-74
2023/03/02 08:14:41;;;;;;;8.05;1.60;;;6.60;99.90;;;;;;5090380;28;20025;-74
2023/03/02 08:17:07;;;;;;;4.32;1.65;;;6.60;99.90;;;;;;5089696;28;20031;-74
2023/03/02 08:19:33;;;;;;;8.88;1.48;;;6.60;99.90;;;;;;5090364;28;20043;-74
2023/03/02 08:22:00;;;;;;;5.78;1.48;;;6.70;99.90;;;;;;5088644;28;20177;-74
2023/03/02 08:24:26;;;;;;;8.52;1.92;;;6.70;99.90;;;;;;5089675;28;20165;-74
2023/03/02 08:26:52;;;;;;;5.38;1.30;;;6.70;99.90;;;;;;5090003;28;20526;-74
2023/03/02 08:29:18;;;;;;;4.95;1.20;;;6.70;99.90;;;;;;5088294;28;20028;-74
2023/03/02 08:31:43;;;;;;;4.85;1.45;;;6.70;99.90;;;;;;5090057;28;20157;-75
2023/03/02 08:34:09;;;;;;;6.10;1.23;;;6.70;99.90;;;;;;5089313;28;20021;-76
2023/03/02 08:36:35;;;;;;;4.65;1.75;;;6.80;99.90;;;;;;5090289;28;20135;-76
2023/03/02 08:39:01;;;;;;;5.40;1.50;;;6.80;99.90;;;;;;5089680;28;20024;-75
2023/03/02 08:41:27;;;;;;;6.18;1.63;;;6.80;99.90;;;;;;5089694;28;20035;-75
2023/03/02 08:43:53;;;;;;;5.80;2.08;;;6.80;99.90;;;;;;5090229;28;20206;-74
2023/03/02 08:46:19;;;;;;;6.47;1.80;;;6.80;99.90;;;;;;5087813;28;20068;-74
2023/03/02 08:48:45;;;;;;;5.07;1.45;;;6.80;99.90;;;;;;5090238;28;20030;-75
2023/03/02 08:51:16;;;;;;;4.32;1.38;;;6.80;99.90;;;;;;5089714;28;20090;-75
2023/03/02 08:53:45;;;;;;;4.13;1.10;;;6.90;99.90;;;;;;5088958;28;20538;-74
2023/03/02 08:56:20;;;;;;;4.70;1.30;;;7.00;99.90;;;;;;5089460;28;20020;-75
2023/03/02 08:58:48;;;;;;;5.68;1.55;;;7.00;99.90;;;;;;5090050;28;20052;-75
2023/03/02 09:01:24;;;;;;;5.47;1.17;;;7.00;99.90;;;;;;5092037;28;20122;-75
2023/03/02 09:03:51;;;;;;;5.07;1.48;;;6.90;99.90;;;;;;5090386;28;20443;-75
2023/03/02 09:06:17;;;;;;;6.25;1.77;;;6.90;99.90;;;;;;5093324;28;20368;-75
2023/03/02 09:08:43;;;;;;;5.88;1.33;;;6.90;99.90;;;;;;5093758;28;20058;-75
2023/03/02 09:11:09;;;;;;;4.05;1.38;;;6.90;99.90;;;;;;5093172;28;20024;-76
2023/03/02 09:13:35;;;;;;;4.15;1.10;;;6.90;99.90;;;;;;5093571;28;20024;-75
2023/03/02 09:16:01;;;;;;;4.80;1.58;;;6.90;99.90;;;;;;5092895;28;20024;-75
2023/03/02 09:18:28;;;;;;;2.25;1.00;;;7.00;99.90;;;;;;5093229;28;20024;-76
2023/03/02 09:20:57;;;;;;;3.47;1.10;;;7.00;99.90;;;;;;5093606;28;20506;-76
2023/03/02 09:23:25;;;;;;;3.55;0.90;;;7.00;99.90;;;;;;5092383;28;20092;-76
2023/03/02 09:25:51;;;;;;;6.15;1.05;;;7.00;99.90;;;;;;5092960;28;20044;-76
2023/03/02 09:28:17;;;;;;;5.82;3.28;;;6.90;99.90;;;;;;5092215;28;20478;-76
2023/03/02 09:30:52;;;;;;;3.97;1.30;;;6.70;99.90;;;;;;5092725;28;20157;-77
2023/03/02 09:33:18;;;;;;;4.35;1.00;;;6.70;99.90;;;;;;5091856;28;20028;-77
2023/03/02 09:35:45;;;;;;;5.47;1.27;;;6.70;99.90;;;;;;5092450;28;20036;-77
2023/03/02 09:38:14;;;;;;;4.00;0.73;;;6.70;99.90;;;;;;5092379;28;20187;-75
2023/03/02 09:41:05;;;;;;;3.63;0.82;;;6.80;99.90;;;;;;5092413;28;20107;-75
2023/03/02 09:43:41;;;;;;;3.65;0.95;;;6.70;99.90;;;;;;5092496;28;20016;-75
2023/03/02 09:46:27;;;;;;;2.90;1.00;;;6.70;99.90;;;;;;5091711;28;20032;-78
2023/03/02 09:49:11;;;;;;;2.58;0.77;;;6.70;99.90;;;;;;5092906;28;20064;-75
2023/03/02 09:52:02;;;;;;;2.65;0.73;;;6.70;99.90;;;;;;5092779;28;20366;-75
2023/03/02 09:54:28;;;;;;;2.00;0.80;;;6.70;99.90;;;;;;5092963;28;20071;-75
2023/03/02 09:56:56;;;;;;;3.13;0.80;;;6.70;99.90;;;;;;5093061;28;20115;-75
2023/03/02 09:59:53;;;;;;;4.63;1.25;;;6.70;99.90;;;;;;5092491;28;20036;-75
2023/03/02 10:02:28;;;;;;;4.55;1.10;;;6.80;99.90;;;;;;5094714;28;20072;-76
2023/03/02 10:04:59;;;;;;;2.75;1.13;;;6.80;99.90;;;;;;5093174;28;20038;-75
2023/03/02 10:07:30;;;;;;;1.83;1.13;;;6.90;99.90;;;;;;5092168;28;20093;-76
2023/03/02 10:10:06;;;;;;;3.65;1.42;;;7.00;99.90;;;;;;5092131;28;20493;-74
2023/03/02 10:12:41;;;;;;;4.57;1.17;;;7.10;99.90;;;;;;5092306;28;20077;-74
2023/03/02 10:15:21;;;;;;;3.30;1.00;;;7.10;99.90;;;;;;5092007;28;20024;-78
2023/03/02 10:17:58;;;;;;;2.25;1.30;;;7.20;99.90;;;;;;5092415;28;20514;-74
2023/03/02 10:20:31;;;;;;;3.25;1.02;;;7.10;99.90;;;;;;5090409;28;20404;-74
2023/03/02 10:23:19;;;;;;;7.68;1.30;;;7.10;99.90;;;;;;5092542;28;20425;-74
2023/03/02 10:26:09;;;;;;;3.20;1.42;;;7.10;99.90;;;;;;5091925;28;20445;-74
2023/03/02 10:28:43;;;;;;;8.73;1.33;;;7.20;99.90;;;;;;5091961;28;20483;-74
2023/03/02 10:31:17;;;;;;;5.63;1.40;;;7.10;99.90;;;;;;5093391;28;20126;-77
2023/03/02 10:33:43;;;;;;;4.95;0.98;;;7.10;99.90;;;;;;5093885;28;20036;-74
2023/03/02 10:36:36;;;;;;;1.35;0.82;;;7.10;99.90;;;;;;5093565;28;20028;-79
2023/03/02 10:39:11;;;;;;;1.65;0.68;;;7.10;99.90;;;;;;5092817;28;20391;-76
2023/03/02 10:41:50;;;;;;;3.20;0.60;;;7.10;99.90;;;;;;5094855;28;20027;-76
2023/03/02 10:44:27;;;;;;;1.58;0.60;;;7.10;99.90;;;;;;5093702;28;20102;-75
2023/03/02 10:46:53;;;;;;;0.93;0.60;;;7.10;99.90;;;;;;5093695;28;20027;-76
2023/03/02 10:49:35;;;;;;;3.15;1.23;;;7.20;99.90;;;;;;5092663;28;20089;-75
2023/03/02 10:52:11;;;;;;;3.80;0.70;;;7.20;99.90;;;;;;5092382;28;20024;-75
2023/03/02 10:54:37;;;;;;;5.82;0.70;;;7.30;99.90;;;;;;5091656;28;20322;-75
2023/03/02 10:57:23;;;;;;;5.53;0.70;;;7.30;99.90;;;;;;5091374;28;20028;-75
2023/03/02 10:59:50;;;;;;;2.30;0.60;;;7.30;99.90;;;;;;5091418;28;20054;-74
2023/03/02 11:02:22;;;;;;;4.60;0.70;;;7.40;99.90;;;;;;5090799;28;20024;-75
2023/03/02 11:04:53;;;;;;;2.17;0.75;;;7.40;99.90;;;;;;5090952;28;20104;-74
2023/03/02 11:07:21;;;;;;;2.00;0.63;;;7.50;99.90;;;;;;5090402;28;20055;-75
2023/03/02 11:10:06;;;;;;;1.75;0.70;;;7.50;99.90;;;;;;5090785;28;20069;-76
2023/03/02 11:12:35;;;;;;;2.67;1.17;;;7.60;99.90;;;;;;5090525;28;20035;-76
2023/03/02 11:15:02;;;;;;;1.83;0.60;;;7.60;99.90;;;;;;5091167;28;20020;-75
2023/03/02 11:17:36;;;;;;;1.52;0.70;;;7.60;99.90;;;;;;5090145;28;20099;-75
2023/03/02 11:20:03;;;;;;;3.60;0.88;;;7.60;99.90;;;;;;5090576;28;20035;-75
2023/03/02 11:22:31;;;;;;;2.38;0.70;;;7.60;99.90;;;;;;5089320;28;20486;-75
2023/03/02 11:25:02;;;;;;;4.15;1.15;;;7.60;99.90;;;;;;5090249;28;20044;-76
2023/03/02 11:27:30;;;;;;;5.53;0.90;;;7.70;99.90;;;;;;5090113;28;20032;-74
2023/03/02 11:30:11;;;;;;;5.55;0.90;;;7.70;99.90;;;;;;5090597;28;20103;-74
2023/03/02 11:33:04;;;;;;;1.42;0.68;;;7.80;99.90;;;;;;5090318;28;20108;-75
2023/03/02 11:35:32;;;;;;;;;;;7.90;99.90;;;;;;5090739;28;20494;-75
2023/03/02 11:38:26;;;;;;;1.77;0.70;;;8.00;99.90;;;;;;5090804;28;19910;-75
2023/03/02 11:41:01;;;;;;;3.75;0.73;;;8.10;99.90;;;;;;5089871;28;20043;-74
2023/03/02 11:43:28;;;;;;;2.80;0.80;;;8.20;99.90;;;;;;5090501;28;20019;-74
2023/03/02 11:46:05;;;;;;;4.32;0.88;;;8.20;99.90;;;;;;5090571;28;20031;-75
2023/03/02 11:48:34;;;;;;;0.60;0.60;;;8.30;99.90;;;;;;5090630;28;20028;-75
2023/03/02 11:51:03;;;;;;;2.60;0.77;;;8.00;99.90;;;;;;5090647;28;20111;-74
2023/03/02 11:53:51;;;;;;;3.13;1.08;;;7.90;99.90;;;;;;5090296;28;20081;-74
2023/03/02 11:56:17;;;;;;;3.15;1.00;;;7.80;99.90;;;;;;5079064;28;20132;-75
2023/03/02 11:58:47;;;;;;;5.45;1.20;;;7.80;99.90;;;;;;5090575;28;20063;-75
2023/03/02 12:01:19;;;;;;;7.88;1.15;;;7.80;99.90;;;;;;5090403;28;20131;-77
2023/03/02 12:03:46;;;;;;;2.58;0.88;;;7.90;99.90;;;;;;5091035;28;20349;-73
2023/03/02 12:06:21;;;;;;;3.63;0.60;;;7.90;99.90;;;;;;5090744;28;20047;-74
2023/03/02 12:09:22;;;;;;;3.45;1.17;;;7.90;99.90;;;;;;5090645;28;20039;-74
2023/03/02 12:11:55;;;;;;;2.70;0.95;;;7.80;99.90;;;;;;5090616;28;20467;-74
2023/03/02 12:14:27;;;;;;;1.42;0.70;;;7.90;99.90;;;;;;5089916;28;20026;-74
2023/03/02 12:17:30;;;;;;;2.38;0.88;;;7.80;99.90;;;;;;5090206;28;20028;-74
2023/03/02 12:20:07;;;;;;;1.50;0.90;;;7.90;99.90;;;;;;5090722;28;20032;-75
2023/03/02 12:22:35;;;;;;;6.68;1.00;;;7.80;99.90;;;;;;5089681;28;20100;-75
2023/03/02 12:25:06;;;;;;;3.58;1.15;;;7.80;99.90;;;;;;5090475;28;20077;-74
2023/03/02 12:27:38;;;;;;;3.08;0.80;;;7.70;99.90;;;;;;5088400;28;20162;-74
2023/03/02 12:30:17;;;;;;;4.07;1.00;;;7.80;99.90;;;;;;5090247;28;20028;-74
2023/03/02 12:32:47;;;;;;;3.40;0.70;;;7.80;99.90;;;;;;5090503;28;20711;-75
2023/03/02 12:35:17;;;;;;;2.33;0.93;;;7.80;99.90;;;;;;5093781;28;20023;-75
2023/03/02 12:37:45;;;;;;;3.90;1.15;;;7.90;99.90;;;;;;5094428;28;20020;-74
2023/03/02 12:40:24;;;;;;;2.78;0.90;;;7.90;99.90;;;;;;5094071;28;20050;-73
2023/03/02 12:43:11;;;;;;;2.03;0.60;;;8.00;99.90;;;;;;5094513;28;20023;-74
2023/03/02 12:45:40;;;;;;;1.45;0.80;;;8.00;99.90;;;;;;5093982;28;20096;-74
2023/03/02 12:48:29;;;;;;;2.30;0.90;;;8.00;99.90;;;;;;5095747;28;20032;-74
2023/03/02 12:51:00;;;;;;;3.28;0.73;;;8.00;99.90;;;;;;5084396;28;20040;-74
2023/03/02 12:53:26;;;;;;;3.40;1.02;;;8.00;99.90;;;;;;5095535;28;20032;-74
2023/03/02 12:55:52;;;;;;;6.05;1.08;;;8.10;99.90;;;;;;5096259;28;20024;-74
2023/03/02 12:58:26;;;;;;;2.15;0.80;;;8.20;99.90;;;;;;5095668;28;20020;-79
2023/03/02 13:00:58;;;;;;;0.77;0.70;;;8.20;99.90;;;;;;5095879;28;20031;-74
2023/03/02 13:03:25;;;;;;;2.10;0.50;;;8.40;99.90;;;;;;5093449;28;20031;-74
2023/03/02 13:06:00;;;;;;;0.82;0.55;;;8.40;99.90;;;;;;5095692;28;20024;-73
2023/03/02 13:08:27;;;;;;;2.50;0.90;;;8.50;99.90;;;;;;5095248;28;20412;-73
2023/03/02 13:10:56;;;;;;;4.03;0.57;;;8.40;99.90;;;;;;5095146;28;20446;-74